createdAt,value
2019-02-22T00:00:50.621Z,15.53
2019-02-22T00:03:23.080Z,15.97
2019-02-22T00:05:53.142Z,16.60
2019-02-22T00:08:25.419Z,16.17
2019-02-22T00:10:58.097Z,15.77
2019-02-22T00:13:29.546Z,15.10
2019-02-22T00:15:59.893Z,14.90
2019-02-22T00:18:32.922Z,14.93
2019-02-22T00:21:05.553Z,15.23
2019-02-22T00:23:42.008Z,14.70
2019-02-22T00:26:12.755Z,13.90
2019-02-22T00:28:43.044Z,13.93
2019-02-22T00:31:12.447Z,13.10
2019-02-22T00:33:44.166Z,15.37
2019-02-22T00:36:27.546Z,15.23
2019-02-22T00:38:57.434Z,13.83
2019-02-22T00:41:27.477Z,15.40
2019-02-22T00:43:56.777Z,14.30
2019-02-22T00:46:25.993Z,13.83
2019-02-22T00:48:55.718Z,16.17
2019-02-22T00:51:25.223Z,16.37
2019-02-22T00:53:54.633Z,15.50
2019-02-22T00:56:24.156Z,16.47
2019-02-22T00:58:53.587Z,17.30
2019-02-22T01:01:23.805Z,17.33
2019-02-22T01:03:54.085Z,16.83
2019-02-22T01:06:23.631Z,17.63
2019-02-22T01:08:53.349Z,16.73
2019-02-22T01:11:23.187Z,17.40
2019-02-22T01:13:52.475Z,19.33
2019-02-22T01:16:21.961Z,18.23
2019-02-22T01:18:51.171Z,20.73
2019-02-22T01:21:21.091Z,19.03
2019-02-22T01:23:51.612Z,18.33
2019-02-22T01:26:21.805Z,18.77
2019-02-22T01:28:51.870Z,19.00
2019-02-22T01:31:21.364Z,18.33
2019-02-22T01:33:50.749Z,17.57
2019-02-22T01:36:21.982Z,17.87
2019-02-22T01:38:53.885Z,18.97
2019-02-22T01:41:23.676Z,18.70
2019-02-22T01:43:53.585Z,16.63
2019-02-22T01:46:23.433Z,19.00
2019-02-22T01:48:53.323Z,17.27
2019-02-22T01:51:23.180Z,16.03
2019-02-22T01:53:54.054Z,18.87
2019-02-22T01:56:24.461Z,16.93
2019-02-22T01:58:54.227Z,17.43
2019-02-22T02:01:24.076Z,16.10
2019-02-22T02:03:55.312Z,17.43
2019-02-22T02:06:24.699Z,17.43
2019-02-22T02:08:54.579Z,17.23
2019-02-22T02:11:25.198Z,17.30
2019-02-22T02:13:55.087Z,16.10
2019-02-22T02:16:24.686Z,16.73
2019-02-22T02:18:54.846Z,16.17
2019-02-22T02:21:24.410Z,16.73
2019-02-22T02:23:57.053Z,17.13
2019-02-22T02:26:28.748Z,16.13
2019-02-22T02:28:58.187Z,16.60
2019-02-22T02:31:29.017Z,17.43
2019-02-22T02:33:58.860Z,18.27
2019-02-22T02:36:28.374Z,17.63
2019-02-22T02:39:00.694Z,17.77
2019-02-22T02:41:30.032Z,18.50
2019-02-22T02:44:00.776Z,18.67
2019-02-22T02:46:30.994Z,18.63
2019-02-22T02:49:00.653Z,17.37
2019-02-22T02:51:30.757Z,20.57
2019-02-22T02:54:01.998Z,19.73
2019-02-22T02:56:32.148Z,18.07
2019-02-22T02:59:02.700Z,21.10
2019-02-22T03:01:32.115Z,18.80
2019-02-22T03:04:01.886Z,19.70
2019-02-22T03:06:56.036Z,20.47
2019-02-22T03:09:27.236Z,20.47
2019-02-22T03:11:56.777Z,22.23
2019-02-22T03:14:26.101Z,21.40
2019-02-22T03:16:57.448Z,22.37
2019-02-22T03:19:26.990Z,22.13
2019-02-22T03:21:58.013Z,23.13
2019-02-22T03:24:27.499Z,23.77
2019-02-22T03:26:59.782Z,23.20
2019-02-22T03:29:40.061Z,23.77
2019-02-22T03:32:10.118Z,25.10
2019-02-22T03:34:39.808Z,23.77
2019-02-22T03:37:09.368Z,25.03
2019-02-22T03:39:38.688Z,25.57
2019-02-22T03:42:08.751Z,26.00
2019-02-22T03:44:38.304Z,26.83
2019-02-22T03:47:08.073Z,25.17
2019-02-22T03:49:39.660Z,24.87
2019-02-22T03:52:32.206Z,25.10
2019-02-22T03:55:01.658Z,25.90
2019-02-22T03:57:30.790Z,24.73
2019-02-22T04:00:00.335Z,23.83
2019-02-22T04:02:30.139Z,24.53
2019-02-22T04:04:59.663Z,25.23
2019-02-22T04:07:30.471Z,24.60
2019-02-22T04:10:01.675Z,24.13
2019-02-22T04:12:31.501Z,24.27
2019-02-22T04:15:02.779Z,23.63
2019-02-22T04:17:35.968Z,23.50
2019-02-22T04:20:05.280Z,23.30
2019-02-22T04:22:34.957Z,26.00
2019-02-22T04:25:04.382Z,24.57
2019-02-22T04:27:33.762Z,23.67
2019-02-22T04:30:03.150Z,22.83
2019-02-22T04:32:32.317Z,22.77
2019-02-22T04:35:02.101Z,21.97
2019-02-22T04:37:33.134Z,22.80
2019-02-22T04:40:05.832Z,22.87
2019-02-22T04:42:35.996Z,23.23
2019-02-22T04:45:06.502Z,22.27
2019-02-22T04:47:36.250Z,22.37
2019-02-22T04:50:06.202Z,22.77
2019-02-22T04:52:36.284Z,24.43
2019-02-22T04:55:06.026Z,23.27
2019-02-22T04:57:35.877Z,22.77
2019-02-22T05:00:08.161Z,23.10
2019-02-22T05:02:37.716Z,24.03
2019-02-22T05:05:08.537Z,23.90
2019-02-22T05:07:40.196Z,23.90
2019-02-22T05:10:11.038Z,25.87
2019-02-22T05:12:42.011Z,22.83
2019-02-22T05:15:12.908Z,22.77
2019-02-22T05:17:44.681Z,23.70
2019-02-22T05:20:14.426Z,25.20
2019-02-22T05:22:43.956Z,26.53
2019-02-22T05:25:14.114Z,26.47
2019-02-22T05:27:44.822Z,25.10
2019-02-22T05:30:13.956Z,26.23
2019-02-22T05:32:43.577Z,25.53
2019-02-22T05:35:14.100Z,23.77
2019-02-22T05:37:43.890Z,24.63
2019-02-22T05:40:15.757Z,24.50
2019-02-22T05:42:45.219Z,24.17
2019-02-22T05:45:15.956Z,25.53
2019-02-22T05:47:45.526Z,26.50
2019-02-22T05:50:15.509Z,25.10
2019-02-22T05:52:46.226Z,25.30
2019-02-22T05:55:16.039Z,25.90
2019-02-22T05:57:45.203Z,24.37
2019-02-22T06:00:15.568Z,25.97
2019-02-22T06:02:47.620Z,25.00
2019-02-22T06:05:17.560Z,25.60
2019-02-22T06:07:48.115Z,26.53
2019-02-22T06:10:18.408Z,25.30
2019-02-22T06:12:50.852Z,25.27
2019-02-22T06:15:20.702Z,26.87
2019-02-22T06:17:50.663Z,25.50
2019-02-22T06:20:20.805Z,27.33
2019-02-22T06:22:50.751Z,27.77
2019-02-22T06:25:21.071Z,27.97
2019-02-22T06:27:50.890Z,28.93
2019-02-22T06:30:22.253Z,26.73
2019-02-22T06:32:52.320Z,28.43
2019-02-22T06:35:22.323Z,28.47
2019-02-22T06:38:07.988Z,28.50
2019-02-22T06:40:37.859Z,29.83
2019-02-22T06:43:07.308Z,31.10
2019-02-22T06:45:40.083Z,30.40
2019-02-22T06:48:09.964Z,31.73
2019-02-22T06:50:40.139Z,32.17
2019-02-22T06:53:09.756Z,30.47
2019-02-22T06:55:41.248Z,31.83
2019-02-22T06:58:12.246Z,31.93
2019-02-22T07:00:44.501Z,30.13
2019-02-22T07:03:15.424Z,30.47
2019-02-22T07:05:45.260Z,30.20
2019-02-22T07:08:19.387Z,31.47
2019-02-22T07:11:08.686Z,31.10
2019-02-22T07:13:38.703Z,30.80
2019-02-22T07:16:11.660Z,27.57
2019-02-22T07:18:41.759Z,31.17
2019-02-22T07:21:11.177Z,30.63
2019-02-22T07:23:40.875Z,29.80
2019-02-22T07:26:12.083Z,29.53
2019-02-22T07:28:42.856Z,28.87
2019-02-22T07:31:13.175Z,31.97
2019-02-22T07:33:48.031Z,29.23
2019-02-22T07:36:17.808Z,32.43
2019-02-22T07:39:01.449Z,31.47
2019-02-22T07:41:31.832Z,29.77
2019-02-22T07:44:02.996Z,30.40
2019-02-22T07:46:38.102Z,29.70
2019-02-22T07:49:08.124Z,29.97
2019-02-22T07:51:37.828Z,30.00
2019-02-22T07:54:09.074Z,30.53
2019-02-22T07:56:40.063Z,30.47
2019-02-22T07:59:10.339Z,30.33
2019-02-22T08:01:47.574Z,33.40
2019-02-22T08:04:13.647Z,30.97
2019-02-22T08:06:43.547Z,31.03
2019-02-22T08:09:12.975Z,30.60
2019-02-22T08:11:47.356Z,30.93
2019-02-22T08:14:16.229Z,28.67
2019-02-22T08:16:48.139Z,29.50
2019-02-22T08:19:20.775Z,30.57
2019-02-22T08:21:50.259Z,29.43
2019-02-22T08:24:20.108Z,30.73
2019-02-22T08:26:49.469Z,30.80
2019-02-22T08:29:20.762Z,30.73
2019-02-22T08:31:52.424Z,28.67
2019-02-22T08:34:22.283Z,29.23
2019-02-22T08:36:52.048Z,29.97
2019-02-22T08:39:21.850Z,27.47
2019-02-22T08:41:52.606Z,30.07
2019-02-22T08:44:23.850Z,27.67
2019-02-22T08:46:53.906Z,30.07
2019-02-22T08:49:29.205Z,28.93
2019-02-22T08:52:00.395Z,28.13
2019-02-22T08:54:32.967Z,29.47
2019-02-22T08:57:02.440Z,28.50
2019-02-22T08:59:38.302Z,28.77
2019-02-22T09:02:08.482Z,28.20
2019-02-22T09:04:45.352Z,28.27
2019-02-22T09:07:15.897Z,26.60
2019-02-22T09:09:49.479Z,27.63
2019-02-22T09:12:20.914Z,31.03
2019-02-22T09:14:50.719Z,26.97
2019-02-22T09:17:20.254Z,24.00
2019-02-22T09:19:49.799Z,25.07
2019-02-22T09:22:22.855Z,27.80
2019-02-22T09:24:50.174Z,28.73
2019-02-22T09:27:19.318Z,27.00
2019-02-22T09:29:58.430Z,27.90
2019-02-22T09:32:23.456Z,27.00
2019-02-22T09:34:53.082Z,27.53
2019-02-22T09:37:23.307Z,27.10
2019-02-22T09:39:53.231Z,26.87
2019-02-22T09:42:22.721Z,28.10
2019-02-22T09:44:52.678Z,27.23
2019-02-22T09:47:22.013Z,26.10
2019-02-22T09:49:51.340Z,26.23
2019-02-22T09:52:20.838Z,26.87
2019-02-22T09:54:50.184Z,26.17
2019-02-22T09:57:19.523Z,26.33
2019-02-22T09:59:49.397Z,28.43
2019-02-22T10:02:22.237Z,27.73
2019-02-22T10:04:55.513Z,26.10
2019-02-22T10:07:25.430Z,26.20
2019-02-22T10:09:55.652Z,27.30
2019-02-22T10:12:24.820Z,25.63
2019-02-22T10:14:55.165Z,24.07
2019-02-22T10:17:26.473Z,27.07
2019-02-22T10:19:57.214Z,25.83
2019-02-22T10:22:26.872Z,24.97
2019-02-22T10:24:56.294Z,24.63
2019-02-22T10:27:25.727Z,25.97
2019-02-22T10:29:55.394Z,24.67
2019-02-22T10:32:24.997Z,25.73
2019-02-22T10:34:54.544Z,24.10
2019-02-22T10:37:24.331Z,24.57
2019-02-22T10:39:58.365Z,24.93
2019-02-22T10:42:27.819Z,26.60
2019-02-22T10:44:58.655Z,24.50
2019-02-22T10:47:28.705Z,24.43
2019-02-22T10:49:58.922Z,25.23
2019-02-22T10:52:29.061Z,23.57
2019-02-22T10:54:58.672Z,25.70
2019-02-22T10:57:31.150Z,22.20
2019-02-22T11:00:00.514Z,23.90
2019-02-22T11:02:31.340Z,25.50
2019-02-22T11:05:00.617Z,25.63
2019-02-22T11:07:31.016Z,24.40
2019-02-22T11:10:01.614Z,23.10
2019-02-22T11:12:31.218Z,21.13
2019-02-22T11:15:02.218Z,23.47
2019-02-22T11:17:32.526Z,23.83
2019-02-22T11:20:02.375Z,22.13
2019-02-22T11:22:32.777Z,22.93
2019-02-22T11:25:09.383Z,23.27
2019-02-22T11:27:39.669Z,22.07
2019-02-22T11:30:11.585Z,21.73
2019-02-22T11:32:41.244Z,20.80
2019-02-22T11:35:11.662Z,19.67
2019-02-22T11:37:41.920Z,20.20
2019-02-22T11:40:11.527Z,19.27
2019-02-22T11:42:41.281Z,20.03
2019-02-22T11:45:11.607Z,20.53
2019-02-22T11:47:42.248Z,18.73
2019-02-22T11:50:11.664Z,18.73
2019-02-22T11:52:45.512Z,18.03
2019-02-22T11:55:15.986Z,19.20
2019-02-22T11:57:47.413Z,18.77
2019-02-22T12:00:17.884Z,17.87
2019-02-22T12:02:47.958Z,17.43
2019-02-22T12:05:17.441Z,17.10
2019-02-22T12:07:52.314Z,17.77
2019-02-22T12:10:22.005Z,18.57
2019-02-22T12:12:51.887Z,18.03
2019-02-22T12:15:21.692Z,17.93
2019-02-22T12:17:50.861Z,17.23
2019-02-22T12:20:20.086Z,18.53
2019-02-22T12:22:49.281Z,15.83
2019-02-22T12:25:18.861Z,18.30
2019-02-22T12:27:49.218Z,17.03
2019-02-22T12:30:18.846Z,17.23
2019-02-22T12:32:48.077Z,16.50
2019-02-22T12:35:19.679Z,17.43
2019-02-22T12:37:50.973Z,17.50
2019-02-22T12:40:21.190Z,15.93
2019-02-22T12:42:50.859Z,16.50
2019-02-22T12:45:20.930Z,15.80
2019-02-22T12:47:51.316Z,16.13
2019-02-22T12:50:22.032Z,15.30
2019-02-22T12:52:52.952Z,15.50
2019-02-22T12:55:27.110Z,15.07
2019-02-22T12:57:59.319Z,15.77
2019-02-22T13:00:29.214Z,15.97
2019-02-22T13:03:02.081Z,16.27
2019-02-22T13:05:30.047Z,16.97
2019-02-22T13:10:54.832Z,14.80
2019-02-22T13:13:43.942Z,15.33
2019-02-22T13:16:17.680Z,16.40
2019-02-22T13:18:48.148Z,15.00
2019-02-22T13:21:19.734Z,15.17
2019-02-22T13:23:51.793Z,14.60
2019-02-22T13:26:23.779Z,14.43
2019-02-22T13:28:55.470Z,15.23
2019-02-22T13:31:30.063Z,15.03
2019-02-22T13:34:03.121Z,14.33
2019-02-22T13:36:34.350Z,14.67
2019-02-22T13:39:06.722Z,14.93
2019-02-22T13:41:35.977Z,14.03
2019-02-22T13:44:05.547Z,13.10
2019-02-22T13:46:36.864Z,13.83
2019-02-22T13:49:07.606Z,13.07
2019-02-22T13:51:42.544Z,15.57
2019-02-22T13:54:17.014Z,12.87
2019-02-22T13:56:47.447Z,12.60
2019-02-22T13:59:19.210Z,12.60
2019-02-22T14:01:48.394Z,12.33
2019-02-22T14:04:19.847Z,13.50
2019-02-22T14:06:49.090Z,13.20
2019-02-22T14:09:20.854Z,13.03
2019-02-22T14:11:52.070Z,12.93
2019-02-22T14:14:22.023Z,14.33
2019-02-22T14:16:51.925Z,12.47
2019-02-22T14:19:22.874Z,12.87
2019-02-22T14:21:52.740Z,12.93
2019-02-22T14:24:25.120Z,13.07
2019-02-22T14:26:55.123Z,15.30
2019-02-22T14:29:26.815Z,12.90
2019-02-22T14:31:56.987Z,13.50
2019-02-22T14:34:26.394Z,13.97
2019-02-22T14:36:55.951Z,12.90
2019-02-22T14:39:26.264Z,14.20
2019-02-22T14:41:56.044Z,11.43
2019-02-22T14:44:26.685Z,12.53
2019-02-22T14:46:58.738Z,12.10
2019-02-22T14:49:29.236Z,11.77
2019-02-22T14:51:59.327Z,13.37
2019-02-22T14:54:32.347Z,12.07
2019-02-22T14:57:04.181Z,12.17
2019-02-22T14:59:34.002Z,11.67
2019-02-22T15:02:03.589Z,11.33
2019-02-22T15:04:36.169Z,10.47
2019-02-22T15:07:05.621Z,10.60
2019-02-22T15:09:36.908Z,10.50
2019-02-22T15:12:06.125Z,10.27
2019-02-22T15:14:35.406Z,10.80
2019-02-22T15:17:22.974Z,10.20
2019-02-22T15:19:52.574Z,10.53
2019-02-22T15:22:24.801Z,11.03
2019-02-22T15:24:54.008Z,11.47
2019-02-22T15:27:24.296Z,11.13
2019-02-22T15:29:55.456Z,10.50
2019-02-22T15:32:26.690Z,10.90
2019-02-22T15:34:57.414Z,10.60
2019-02-22T15:37:26.894Z,10.43
2019-02-22T15:39:56.760Z,11.20
2019-02-22T15:42:26.441Z,10.43
2019-02-22T15:44:56.640Z,10.40
2019-02-22T15:47:26.627Z,11.00
2019-02-22T15:49:56.559Z,9.53
2019-02-22T15:52:26.103Z,10.33
2019-02-22T15:54:56.399Z,10.20
2019-02-22T15:57:27.571Z,9.17
2019-02-22T15:59:59.331Z,9.97
2019-02-22T16:02:30.101Z,9.13
2019-02-22T16:05:15.759Z,7.30
2019-02-22T16:07:49.792Z,7.13
2019-02-22T16:10:21.510Z,6.57
2019-02-22T16:12:50.901Z,5.80
2019-02-22T16:15:20.966Z,5.80
2019-02-22T16:17:52.097Z,5.77
2019-02-22T16:20:21.998Z,5.93
2019-02-22T16:22:52.496Z,4.80
2019-02-22T16:25:23.168Z,4.33
2019-02-22T16:27:54.456Z,3.90
2019-02-22T16:30:27.793Z,4.17
2019-02-22T16:32:58.145Z,4.30
2019-02-22T16:35:28.332Z,3.90
2019-02-22T16:38:00.491Z,4.43
2019-02-22T16:40:33.793Z,4.80
2019-02-22T16:43:03.221Z,4.43
2019-02-22T16:45:36.477Z,4.90
2019-02-22T16:48:06.419Z,4.40
2019-02-22T16:50:36.041Z,4.33
2019-02-22T16:53:05.593Z,4.60
2019-02-22T16:55:37.793Z,4.57
2019-02-22T16:58:10.769Z,5.30
2019-02-22T17:00:49.411Z,5.20
2019-02-22T17:03:24.931Z,6.37
2019-02-22T17:05:54.741Z,5.70
2019-02-22T17:08:25.810Z,5.13
2019-02-22T17:10:59.839Z,4.97
2019-02-22T17:13:31.984Z,5.10
2019-02-22T17:16:02.150Z,5.67
2019-02-22T17:18:35.457Z,6.00
2019-02-22T17:21:06.306Z,6.47
2019-02-22T17:23:37.505Z,6.30
2019-02-22T17:26:10.382Z,6.77
2019-02-22T17:28:40.416Z,7.43
2019-02-22T17:31:09.802Z,6.83
2019-02-22T17:33:41.885Z,7.97
2019-02-22T17:36:13.500Z,8.37
2019-02-22T17:38:43.439Z,7.90
2019-02-22T17:44:05.017Z,8.13
2019-02-22T17:46:35.321Z,8.53
2019-02-22T17:49:05.630Z,8.80
2019-02-22T17:52:15.707Z,9.90
2019-02-22T17:55:27.283Z,8.30
2019-02-22T17:58:00.731Z,8.37
2019-02-22T18:03:39.697Z,8.80
2019-02-22T18:06:10.267Z,8.83
2019-02-22T18:09:41.158Z,8.77
2019-02-22T18:11:49.891Z,8.57
2019-02-22T18:14:32.146Z,8.93
2019-02-22T18:17:08.560Z,8.07
2019-02-22T18:19:38.046Z,8.77
2019-02-22T18:22:25.500Z,9.13
2019-02-22T18:24:51.330Z,8.07
2019-02-22T18:27:31.804Z,8.90
2019-02-22T18:30:13.610Z,7.47
2019-02-22T18:33:04.111Z,8.77
2019-02-22T18:35:35.103Z,8.53
2019-02-22T18:38:17.047Z,8.33
2019-02-22T18:40:58.328Z,7.80
2019-02-22T18:43:37.198Z,7.87
2019-02-22T18:46:10.290Z,6.43
2019-02-22T18:48:42.292Z,6.60
2019-02-22T18:52:00.466Z,6.07
2019-02-22T18:53:50.623Z,5.90
2019-02-22T18:56:20.580Z,5.43
2019-02-22T18:58:53.895Z,5.80
2019-02-22T19:01:30.492Z,5.60
2019-02-22T19:04:02.980Z,5.33
2019-02-22T19:06:33.083Z,5.20
2019-02-22T19:09:14.045Z,5.60
2019-02-22T19:11:51.083Z,5.43
2019-02-22T19:14:26.916Z,4.80
2019-02-22T19:17:07.235Z,5.43
2019-02-22T19:19:45.244Z,4.60
2019-02-22T19:22:16.485Z,4.97
2019-02-22T19:24:55.449Z,5.80
2019-02-22T19:27:36.166Z,4.87
2019-02-22T19:30:11.665Z,4.93
2019-02-22T19:32:35.799Z,4.80
2019-02-22T19:35:13.795Z,4.70
2019-02-22T19:38:01.708Z,4.83
2019-02-22T19:40:43.619Z,5.37
2019-02-22T19:43:15.502Z,4.73
2019-02-22T19:45:47.305Z,4.30
2019-02-22T19:48:17.255Z,4.57
2019-02-22T19:50:53.744Z,4.67
2019-02-22T19:53:24.948Z,4.53
2019-02-22T19:55:54.410Z,4.27
2019-02-22T19:58:24.217Z,4.03
2019-02-22T20:00:57.597Z,4.80
2019-02-22T20:03:27.520Z,5.00
2019-02-22T20:05:56.992Z,5.37
2019-02-22T20:08:28.454Z,6.30
2019-02-22T20:11:03.294Z,7.83
2019-02-22T20:13:33.424Z,6.70
2019-02-22T20:16:05.050Z,6.40
2019-02-22T20:18:37.142Z,6.93
2019-02-22T20:21:09.179Z,7.20
2019-02-22T20:23:40.041Z,7.47
2019-02-22T20:26:09.872Z,7.17
2019-02-22T20:28:40.552Z,7.60
2019-02-22T20:31:19.846Z,7.27
2019-02-22T20:33:43.501Z,7.47
2019-02-22T20:36:13.544Z,7.10
2019-02-22T20:38:43.021Z,6.83
2019-02-22T20:41:12.600Z,7.33
2019-02-22T20:43:43.566Z,7.57
2019-02-22T20:46:13.171Z,7.90
2019-02-22T20:48:42.281Z,7.53
2019-02-22T20:51:13.755Z,7.90
2019-02-22T20:53:49.615Z,8.53
2019-02-22T20:56:22.818Z,7.67
2019-02-22T20:58:52.550Z,8.10
2019-02-22T21:01:22.849Z,8.27
2019-02-22T21:03:52.401Z,9.40
2019-02-22T21:06:21.734Z,8.00
2019-02-22T21:08:52.987Z,7.97
2019-02-22T21:11:23.683Z,8.93
2019-02-22T21:13:53.322Z,8.90
2019-02-22T21:16:22.807Z,9.20
2019-02-22T21:18:53.927Z,8.20
2019-02-22T21:21:23.571Z,8.83
2019-02-22T21:23:59.323Z,9.47
2019-02-22T21:27:05.784Z,8.70
2019-02-22T21:29:34.910Z,8.83
2019-02-22T21:32:10.630Z,8.80
2019-02-22T21:34:42.101Z,8.60
2019-02-22T21:37:17.470Z,9.33
2019-02-22T21:39:48.366Z,8.50
2019-02-22T21:42:20.338Z,7.93
2019-02-22T21:44:49.723Z,8.90
2019-02-22T21:47:40.404Z,7.90
2019-02-22T21:50:21.895Z,7.87
2019-02-22T21:53:08.284Z,7.70
2019-02-22T21:55:44.144Z,8.17
2019-02-22T21:58:21.264Z,7.63
2019-02-22T22:01:00.245Z,7.80
2019-02-22T22:03:33.950Z,8.07
2019-02-22T22:06:04.840Z,7.97
2019-02-22T22:08:37.415Z,8.20
2019-02-22T22:11:08.302Z,9.07
2019-02-22T22:13:40.477Z,8.63
2019-02-22T22:16:12.786Z,7.87
2019-02-22T22:18:42.004Z,7.97
2019-02-22T22:21:12.428Z,9.23
2019-02-22T22:23:45.344Z,8.60
2019-02-22T22:26:20.637Z,8.47
2019-02-22T22:29:01.972Z,8.50
2019-02-22T22:31:33.337Z,7.90
2019-02-22T22:34:07.042Z,8.43
2019-02-22T22:36:36.619Z,8.40
2019-02-22T22:39:07.960Z,8.37
2019-02-22T22:41:42.792Z,8.33
2019-02-22T22:44:11.355Z,8.30
2019-02-22T22:46:43.256Z,8.10
2019-02-22T22:49:12.760Z,7.77
2019-02-22T22:51:42.142Z,8.03
2019-02-22T22:54:11.675Z,8.00
2019-02-22T22:56:41.520Z,8.17
2019-02-22T22:59:11.759Z,8.27
2019-02-22T23:01:43.857Z,8.00
2019-02-22T23:04:13.874Z,7.67
2019-02-22T23:06:43.285Z,7.90
2019-02-22T23:09:18.080Z,8.03
2019-02-22T23:11:47.593Z,8.10
2019-02-22T23:14:17.653Z,8.10
2019-02-22T23:16:47.450Z,8.33
2019-02-22T23:19:17.065Z,7.73
2019-02-22T23:21:46.378Z,8.33
2019-02-22T23:24:16.086Z,8.63
2019-02-22T23:26:46.539Z,8.13
2019-02-22T23:29:17.379Z,8.10
2019-02-22T23:31:46.661Z,8.77
2019-02-22T23:34:16.355Z,8.40
2019-02-22T23:36:47.092Z,8.27
2019-02-22T23:39:18.866Z,8.33
2019-02-22T23:41:49.553Z,9.37
2019-02-22T23:44:19.922Z,8.00
2019-02-22T23:46:49.549Z,8.40
2019-02-22T23:49:19.739Z,8.47
2019-02-22T23:51:50.493Z,9.23
2019-02-22T23:54:21.296Z,8.67
2019-02-22T23:56:52.330Z,9.40
2019-02-22T23:59:22.458Z,8.47
